sensor_id;sensor_type;location;lat;lon;timestamp;temperature;humidity
27747;DHT22;15138;51.012;4.692;2023-04-01T00:00:35;10.20;99.90
27747;DHT22;15138;51.012;4.692;2023-04-01T00:03:03;10.10;99.90
27747;DHT22;15138;51.012;4.692;2023-04-01T00:05:31;10.10;99.90
27747;DHT22;15138;51.012;4.692;2023-04-01T00:08:01;10.20;99.90
27747;DHT22;15138;51.012;4.692;2023-04-01T00:10:29;10.20;99.90
27747;DHT22;15138;51.012;4.692;2023-04-01T00:13:00;10.10;99.90
27747;DHT22;15138;51.012;4.692;2023-04-01T00:15:28;10.10;99.90
27747;DHT22;15138;51.012;4.692;2023-04-01T00:17:57;10.10;99.90
27747;DHT22;15138;51.012;4.692;2023-04-01T00:20:26;10.10;1.00
27747;DHT22;15138;51.012;4.692;2023-04-01T00:22:54;10.10;1.00
27747;DHT22;15138;51.012;4.692;2023-04-01T00:25:24;10.10;1.00
27747;DHT22;15138;51.012;4.692;2023-04-01T00:27:52;10.10;1.00
27747;DHT22;15138;51.012;4.692;2023-04-01T00:30:20;10.10;1.00
27747;DHT22;15138;51.012;4.692;2023-04-01T00:32:51;10.10;1.00
27747;DHT22;15138;51.012;4.692;2023-04-01T00:35:20;10.10;1.00
27747;DHT22;15138;51.012;4.692;2023-04-01T00:37:49;10.10;1.00
27747;DHT22;15138;51.012;4.692;2023-04-01T00:40:26;10.10;1.00
27747;DHT22;15138;51.012;4.692;2023-04-01T00:42:55;10.10;1.00
27747;DHT22;15138;51.012;4.692;2023-04-01T00:45:27;10.10;1.00
27747;DHT22;15138;51.012;4.692;2023-04-01T00:47:56;10.10;1.00
27747;DHT22;15138;51.012;4.692;2023-04-01T00:50:26;10.10;1.00
27747;DHT22;15138;51.012;4.692;2023-04-01T00:52:58;10.10;1.00
27747;DHT22;15138;51.012;4.692;2023-04-01T00:55:29;10.10;1.00
27747;DHT22;15138;51.012;4.692;2023-04-01T00:58:00;10.20;1.00
27747;DHT22;15138;51.012;4.692;2023-04-01T01:00:29;10.10;1.00
27747;DHT22;15138;51.012;4.692;2023-04-01T01:02:58;10.10;1.00
27747;DHT22;15138;51.012;4.692;2023-04-01T01:05:34;10.10;1.00
27747;DHT22;15138;51.012;4.692;2023-04-01T01:08:22;10.10;1.00
27747;DHT22;15138;51.012;4.692;2023-04-01T01:10:55;10.10;1.00
27747;DHT22;15138;51.012;4.692;2023-04-01T01:13:28;10.10;1.00
27747;DHT22;15138;51.012;4.692;2023-04-01T01:16:05;10.10;1.00
27747;DHT22;15138;51.012;4.692;2023-04-01T01:18:37;10.10;1.00
27747;DHT22;15138;51.012;4.692;2023-04-01T01:21:33;10.10;1.00
27747;DHT22;15138;51.012;4.692;2023-04-01T01:27:17;10.10;1.00
27747;DHT22;15138;51.012;4.692;2023-04-01T01:33:06;10.10;1.00
27747;DHT22;15138;51.012;4.692;2023-04-01T01:35:41;10.10;1.00
27747;DHT22;15138;51.012;4.692;2023-04-01T01:38:12;10.10;1.00
27747;DHT22;15138;51.012;4.692;2023-04-01T01:40:43;10.10;1.00
27747;DHT22;15138;51.012;4.692;2023-04-01T01:43:14;10.10;1.00
27747;DHT22;15138;51.012;4.692;2023-04-01T01:45:46;10.10;1.00
27747;DHT22;15138;51.012;4.692;2023-04-01T01:48:17;10.10;1.00
27747;DHT22;15138;51.012;4.692;2023-04-01T01:50:47;10.10;1.00
27747;DHT22;15138;51.012;4.692;2023-04-01T01:53:16;10.10;1.00
27747;DHT22;15138;51.012;4.692;2023-04-01T01:55:46;10.10;1.00
27747;DHT22;15138;51.012;4.692;2023-04-01T01:58:17;10.00;1.00
27747;DHT22;15138;51.012;4.692;2023-04-01T02:00:50;10.10;1.00
27747;DHT22;15138;51.012;4.692;2023-04-01T02:03:21;10.10;1.00
27747;DHT22;15138;51.012;4.692;2023-04-01T02:05:53;10.10;1.00
27747;DHT22;15138;51.012;4.692;2023-04-01T02:08:26;10.00;1.00
27747;DHT22;15138;51.012;4.692;2023-04-01T02:10:57;10.10;1.00
27747;DHT22;15138;51.012;4.692;2023-04-01T02:13:29;10.00;1.00
27747;DHT22;15138;51.012;4.692;2023-04-01T02:16:01;10.10;1.00
27747;DHT22;15138;51.012;4.692;2023-04-01T02:18:34;10.00;1.00
27747;DHT22;15138;51.012;4.692;2023-04-01T02:21:05;10.00;1.00
27747;DHT22;15138;51.012;4.692;2023-04-01T02:23:35;10.00;1.00
27747;DHT22;15138;51.012;4.692;2023-04-01T02:26:05;10.00;1.00
27747;DHT22;15138;51.012;4.692;2023-04-01T02:28:37;10.00;1.00
27747;DHT22;15138;51.012;4.692;2023-04-01T02:31:06;10.00;1.00
27747;DHT22;15138;51.012;4.692;2023-04-01T02:33:38;10.00;99.90
27747;DHT22;15138;51.012;4.692;2023-04-01T02:36:11;10.00;99.90
27747;DHT22;15138;51.012;4.692;2023-04-01T02:38:41;10.00;99.90
27747;DHT22;15138;51.012;4.692;2023-04-01T02:41:09;10.00;1.00
27747;DHT22;15138;51.012;4.692;2023-04-01T02:43:38;9.90;99.90
27747;DHT22;15138;51.012;4.692;2023-04-01T02:46:06;9.90;99.90
27747;DHT22;15138;51.012;4.692;2023-04-01T02:48:34;9.90;99.90
27747;DHT22;15138;51.012;4.692;2023-04-01T02:51:03;9.90;99.90
27747;DHT22;15138;51.012;4.692;2023-04-01T02:53:33;9.90;99.90
27747;DHT22;15138;51.012;4.692;2023-04-01T02:56:01;9.90;99.90
27747;DHT22;15138;51.012;4.692;2023-04-01T02:58:29;9.90;99.90
27747;DHT22;15138;51.012;4.692;2023-04-01T03:00:57;9.90;99.90
27747;DHT22;15138;51.012;4.692;2023-04-01T03:03:25;9.90;99.90
27747;DHT22;15138;51.012;4.692;2023-04-01T03:05:53;9.90;99.90
27747;DHT22;15138;51.012;4.692;2023-04-01T03:08:23;9.90;99.90
27747;DHT22;15138;51.012;4.692;2023-04-01T03:10:52;9.90;99.90
27747;DHT22;15138;51.012;4.692;2023-04-01T03:13:20;9.90;1.00
27747;DHT22;15138;51.012;4.692;2023-04-01T03:15:48;9.80;1.00
27747;DHT22;15138;51.012;4.692;2023-04-01T03:18:17;9.80;1.00
27747;DHT22;15138;51.012;4.692;2023-04-01T03:20:45;9.80;1.00
27747;DHT22;15138;51.012;4.692;2023-04-01T03:23:13;9.80;1.00
27747;DHT22;15138;51.012;4.692;2023-04-01T03:25:44;9.80;1.00
27747;DHT22;15138;51.012;4.692;2023-04-01T03:28:13;9.80;1.00
27747;DHT22;15138;51.012;4.692;2023-04-01T03:30:41;9.80;1.00
27747;DHT22;15138;51.012;4.692;2023-04-01T03:33:10;9.80;1.00
27747;DHT22;15138;51.012;4.692;2023-04-01T03:35:38;9.80;1.00
27747;DHT22;15138;51.012;4.692;2023-04-01T03:38:06;9.80;1.00
27747;DHT22;15138;51.012;4.692;2023-04-01T03:40:34;9.80;1.00
27747;DHT22;15138;51.012;4.692;2023-04-01T03:43:04;9.80;1.00
27747;DHT22;15138;51.012;4.692;2023-04-01T03:45:36;9.80;1.00
27747;DHT22;15138;51.012;4.692;2023-04-01T03:48:11;9.80;1.00
27747;DHT22;15138;51.012;4.692;2023-04-01T03:50:39;9.80;1.00
27747;DHT22;15138;51.012;4.692;2023-04-01T03:53:07;9.80;1.00
27747;DHT22;15138;51.012;4.692;2023-04-01T03:55:36;9.80;1.00
27747;DHT22;15138;51.012;4.692;2023-04-01T03:58:05;9.80;1.00
27747;DHT22;15138;51.012;4.692;2023-04-01T04:00:33;9.80;1.00
27747;DHT22;15138;51.012;4.692;2023-04-01T04:03:03;9.80;1.00
27747;DHT22;15138;51.012;4.692;2023-04-01T04:05:32;9.70;1.00
27747;DHT22;15138;51.012;4.692;2023-04-01T04:08:00;9.70;1.00
27747;DHT22;15138;51.012;4.692;2023-04-01T04:10:29;9.70;1.00
27747;DHT22;15138;51.012;4.692;2023-04-01T04:12:57;9.70;1.00
27747;DHT22;15138;51.012;4.692;2023-04-01T04:15:25;9.70;1.00
27747;DHT22;15138;51.012;4.692;2023-04-01T04:17:53;9.70;1.00
27747;DHT22;15138;51.012;4.692;2023-04-01T04:20:23;9.70;1.00
27747;DHT22;15138;51.012;4.692;2023-04-01T04:22:51;9.80;1.00
27747;DHT22;15138;51.012;4.692;2023-04-01T04:25:19;9.80;1.00
27747;DHT22;15138;51.012;4.692;2023-04-01T04:27:47;9.70;1.00
27747;DHT22;15138;51.012;4.692;2023-04-01T04:30:16;9.80;1.00
27747;DHT22;15138;51.012;4.692;2023-04-01T04:32:44;9.70;1.00
27747;DHT22;15138;51.012;4.692;2023-04-01T04:35:13;9.80;1.00
27747;DHT22;15138;51.012;4.692;2023-04-01T04:37:42;9.80;1.00
27747;DHT22;15138;51.012;4.692;2023-04-01T04:40:11;9.80;1.00
27747;DHT22;15138;51.012;4.692;2023-04-01T04:42:39;9.70;1.00
27747;DHT22;15138;51.012;4.692;2023-04-01T04:45:07;9.80;1.00
27747;DHT22;15138;51.012;4.692;2023-04-01T04:47:35;9.80;1.00
27747;DHT22;15138;51.012;4.692;2023-04-01T04:50:05;9.80;1.00
27747;DHT22;15138;51.012;4.692;2023-04-01T04:52:33;9.80;1.00
27747;DHT22;15138;51.012;4.692;2023-04-01T04:55:03;9.80;1.00
27747;DHT22;15138;51.012;4.692;2023-04-01T04:57:31;9.80;1.00
27747;DHT22;15138;51.012;4.692;2023-04-01T05:00:00;9.80;1.00
27747;DHT22;15138;51.012;4.692;2023-04-01T05:02:28;9.80;1.00
27747;DHT22;15138;51.012;4.692;2023-04-01T05:04:57;9.80;1.00
27747;DHT22;15138;51.012;4.692;2023-04-01T05:07:25;9.70;1.00
27747;DHT22;15138;51.012;4.692;2023-04-01T05:09:53;9.70;1.00
27747;DHT22;15138;51.012;4.692;2023-04-01T05:12:23;9.80;1.00
27747;DHT22;15138;51.012;4.692;2023-04-01T05:14:51;9.70;1.00
27747;DHT22;15138;51.012;4.692;2023-04-01T05:17:19;9.80;1.00
27747;DHT22;15138;51.012;4.692;2023-04-01T05:19:48;9.80;1.00
27747;DHT22;15138;51.012;4.692;2023-04-01T05:22:16;9.80;1.00
27747;DHT22;15138;51.012;4.692;2023-04-01T05:24:44;9.80;1.00
27747;DHT22;15138;51.012;4.692;2023-04-01T05:27:12;9.80;99.90
27747;DHT22;15138;51.012;4.692;2023-04-01T05:29:42;9.80;1.00
27747;DHT22;15138;51.012;4.692;2023-04-01T05:32:10;9.80;1.00
27747;DHT22;15138;51.012;4.692;2023-04-01T05:34:38;9.80;1.00
27747;DHT22;15138;51.012;4.692;2023-04-01T05:37:06;9.70;1.00
27747;DHT22;15138;51.012;4.692;2023-04-01T05:39:36;9.70;1.00
27747;DHT22;15138;51.012;4.692;2023-04-01T05:42:06;9.70;1.00
27747;DHT22;15138;51.012;4.692;2023-04-01T05:44:35;9.70;1.00
27747;DHT22;15138;51.012;4.692;2023-04-01T05:47:04;9.70;1.00
27747;DHT22;15138;51.012;4.692;2023-04-01T05:49:33;9.70;1.00
27747;DHT22;15138;51.012;4.692;2023-04-01T05:52:01;9.70;1.00
27747;DHT22;15138;51.012;4.692;2023-04-01T05:54:30;9.70;1.00
27747;DHT22;15138;51.012;4.692;2023-04-01T05:56:58;9.70;1.00
27747;DHT22;15138;51.012;4.692;2023-04-01T05:59:26;9.80;1.00
27747;DHT22;15138;51.012;4.692;2023-04-01T06:01:54;9.70;1.00
27747;DHT22;15138;51.012;4.692;2023-04-01T06:04:31;9.70;1.00
27747;DHT22;15138;51.012;4.692;2023-04-01T06:07:00;9.70;1.00
27747;DHT22;15138;51.012;4.692;2023-04-01T06:09:30;9.80;1.00
27747;DHT22;15138;51.012;4.692;2023-04-01T06:12:22;9.70;1.00
27747;DHT22;15138;51.012;4.692;2023-04-01T06:14:56;9.70;1.00
27747;DHT22;15138;51.012;4.692;2023-04-01T06:17:47;9.70;1.00
27747;DHT22;15138;51.012;4.692;2023-04-01T06:20:25;9.80;99.90
27747;DHT22;15138;51.012;4.692;2023-04-01T06:23:11;9.80;1.00
27747;DHT22;15138;51.012;4.692;2023-04-01T06:25:59;9.80;99.90
27747;DHT22;15138;51.012;4.692;2023-04-01T06:28:50;9.80;99.90
27747;DHT22;15138;51.012;4.692;2023-04-01T06:31:35;9.80;99.90
27747;DHT22;15138;51.012;4.692;2023-04-01T06:34:20;9.80;99.90
27747;DHT22;15138;51.012;4.692;2023-04-01T06:37:01;9.80;1.00
27747;DHT22;15138;51.012;4.692;2023-04-01T06:45:16;9.70;1.00
27747;DHT22;15138;51.012;4.692;2023-04-01T06:47:57;9.80;1.00
27747;DHT22;15138;51.012;4.692;2023-04-01T06:50:31;9.70;1.00
27747;DHT22;15138;51.012;4.692;2023-04-01T06:53:09;9.70;1.00
27747;DHT22;15138;51.012;4.692;2023-04-01T06:55:41;9.70;1.00
27747;DHT22;15138;51.012;4.692;2023-04-01T07:00:50;9.80;1.00
27747;DHT22;15138;51.012;4.692;2023-04-01T07:03:23;9.80;1.00
27747;DHT22;15138;51.012;4.692;2023-04-01T07:05:59;9.80;1.00
27747;DHT22;15138;51.012;4.692;2023-04-01T07:08:35;9.70;1.00
27747;DHT22;15138;51.012;4.692;2023-04-01T07:11:05;9.70;1.00
27747;DHT22;15138;51.012;4.692;2023-04-01T07:13:38;9.70;1.00
27747;DHT22;15138;51.012;4.692;2023-04-01T07:16:12;9.70;1.00
27747;DHT22;15138;51.012;4.692;2023-04-01T07:18:45;9.70;1.00
27747;DHT22;15138;51.012;4.692;2023-04-01T07:21:25;9.70;1.00
27747;DHT22;15138;51.012;4.692;2023-04-01T07:23:59;9.70;1.00
27747;DHT22;15138;51.012;4.692;2023-04-01T07:26:29;9.70;99.90
27747;DHT22;15138;51.012;4.692;2023-04-01T07:28:57;9.80;99.90
27747;DHT22;15138;51.012;4.692;2023-04-01T07:31:36;9.80;99.90
27747;DHT22;15138;51.012;4.692;2023-04-01T07:34:15;9.80;1.00
27747;DHT22;15138;51.012;4.692;2023-04-01T07:36:47;9.80;1.00
27747;DHT22;15138;51.012;4.692;2023-04-01T07:39:28;9.80;1.00
27747;DHT22;15138;51.012;4.692;2023-04-01T07:42:02;9.80;1.00
27747;DHT22;15138;51.012;4.692;2023-04-01T07:44:39;9.70;99.90
27747;DHT22;15138;51.012;4.692;2023-04-01T07:47:21;9.80;1.00
27747;DHT22;15138;51.012;4.692;2023-04-01T07:50:02;9.80;1.00
27747;DHT22;15138;51.012;4.692;2023-04-01T07:52:35;9.80;1.00
27747;DHT22;15138;51.012;4.692;2023-04-01T07:55:13;9.80;1.00
27747;DHT22;15138;51.012;4.692;2023-04-01T07:57:47;9.80;1.00
27747;DHT22;15138;51.012;4.692;2023-04-01T08:00:21;9.80;1.00
27747;DHT22;15138;51.012;4.692;2023-04-01T08:03:03;9.80;1.00
27747;DHT22;15138;51.012;4.692;2023-04-01T08:05:40;9.90;1.00
27747;DHT22;15138;51.012;4.692;2023-04-01T08:08:17;9.80;1.00
27747;DHT22;15138;51.012;4.692;2023-04-01T08:10:51;10.10;1.00
27747;DHT22;15138;51.012;4.692;2023-04-01T08:13:29;9.90;1.00
27747;DHT22;15138;51.012;4.692;2023-04-01T08:16:06;10.00;1.00
27747;DHT22;15138;51.012;4.692;2023-04-01T08:18:43;10.00;1.00
27747;DHT22;15138;51.012;4.692;2023-04-01T08:21:19;10.00;1.00
27747;DHT22;15138;51.012;4.692;2023-04-01T08:23:52;10.10;1.00
27747;DHT22;15138;51.012;4.692;2023-04-01T08:26:28;10.10;1.00
27747;DHT22;15138;51.012;4.692;2023-04-01T08:29:01;10.00;99.90
27747;DHT22;15138;51.012;4.692;2023-04-01T08:31:37;10.10;99.90
27747;DHT22;15138;51.012;4.692;2023-04-01T08:34:14;10.10;1.00
27747;DHT22;15138;51.012;4.692;2023-04-01T08:36:45;10.10;1.00
27747;DHT22;15138;51.012;4.692;2023-04-01T08:39:19;10.10;99.90
27747;DHT22;15138;51.012;4.692;2023-04-01T08:42:17;10.20;99.90
27747;DHT22;15138;51.012;4.692;2023-04-01T08:45:31;10.10;99.90
27747;DHT22;15138;51.012;4.692;2023-04-01T08:48:31;10.10;1.00
27747;DHT22;15138;51.012;4.692;2023-04-01T08:51:16;10.10;1.00
27747;DHT22;15138;51.012;4.692;2023-04-01T08:54:03;10.20;1.00
27747;DHT22;15138;51.012;4.692;2023-04-01T08:56:36;10.10;1.00
27747;DHT22;15138;51.012;4.692;2023-04-01T09:01:57;10.30;1.00
27747;DHT22;15138;51.012;4.692;2023-04-01T09:04:43;10.30;1.00
27747;DHT22;15138;51.012;4.692;2023-04-01T09:07:28;10.40;99.90
27747;DHT22;15138;51.012;4.692;2023-04-01T09:10:23;10.50;1.00
27747;DHT22;15138;51.012;4.692;2023-04-01T09:13:17;10.50;99.90
27747;DHT22;15138;51.012;4.692;2023-04-01T09:16:09;10.60;99.90
27747;DHT22;15138;51.012;4.692;2023-04-01T09:18:59;10.70;99.90
27747;DHT22;15138;51.012;4.692;2023-04-01T09:21:58;10.60;99.90
27747;DHT22;15138;51.012;4.692;2023-04-01T09:24:58;10.60;99.90
27747;DHT22;15138;51.012;4.692;2023-04-01T09:27:33;10.50;99.90
27747;DHT22;15138;51.012;4.692;2023-04-01T09:30:41;10.60;99.90
27747;DHT22;15138;51.012;4.692;2023-04-01T09:33:46;10.70;99.90
27747;DHT22;15138;51.012;4.692;2023-04-01T09:36:33;10.50;99.90
27747;DHT22;15138;51.012;4.692;2023-04-01T09:39:25;10.70;99.90
27747;DHT22;15138;51.012;4.692;2023-04-01T09:42:08;10.80;99.90
27747;DHT22;15138;51.012;4.692;2023-04-01T09:44:44;10.70;99.90
27747;DHT22;15138;51.012;4.692;2023-04-01T09:47:24;10.80;99.90
27747;DHT22;15138;51.012;4.692;2023-04-01T09:50:12;10.80;1.00
27747;DHT22;15138;51.012;4.692;2023-04-01T09:52:47;10.90;63.10
27747;DHT22;15138;51.012;4.692;2023-04-01T09:58:09;10.90;99.90
27747;DHT22;15138;51.012;4.692;2023-04-01T10:01:07;10.90;1.00
27747;DHT22;15138;51.012;4.692;2023-04-01T10:12:44;10.90;1.00
27747;DHT22;15138;51.012;4.692;2023-04-01T10:15:46;10.80;99.90
27747;DHT22;15138;51.012;4.692;2023-04-01T10:24:57;10.80;99.90
27747;DHT22;15138;51.012;4.692;2023-04-01T10:27:55;10.90;99.90
27747;DHT22;15138;51.012;4.692;2023-04-01T10:31:00;10.90;1.00
27747;DHT22;15138;51.012;4.692;2023-04-01T10:36:52;10.90;99.90
27747;DHT22;15138;51.012;4.692;2023-04-01T10:49:06;10.90;1.00
27747;DHT22;15138;51.012;4.692;2023-04-01T10:54:57;10.90;99.90
27747;DHT22;15138;51.012;4.692;2023-04-01T11:03:29;10.90;99.90
27747;DHT22;15138;51.012;4.692;2023-04-01T11:12:55;10.90;1.00
27747;DHT22;15138;51.012;4.692;2023-04-01T11:15:53;11.00;99.90
27747;DHT22;15138;51.012;4.692;2023-04-01T11:18:55;11.00;1.00
27747;DHT22;15138;51.012;4.692;2023-04-01T11:21:50;10.90;99.90
27747;DHT22;15138;51.012;4.692;2023-04-01T11:24:40;11.00;1.00
27747;DHT22;15138;51.012;4.692;2023-04-01T11:27:27;10.90;99.90
27747;DHT22;15138;51.012;4.692;2023-04-01T11:30:06;11.10;99.90
27747;DHT22;15138;51.012;4.692;2023-04-01T11:32:43;11.20;99.90
27747;DHT22;15138;51.012;4.692;2023-04-01T11:35:57;11.20;99.90
27747;DHT22;15138;51.012;4.692;2023-04-01T11:38:37;11.10;99.90
27747;DHT22;15138;51.012;4.692;2023-04-01T11:41:19;11.10;1.00
27747;DHT22;15138;51.012;4.692;2023-04-01T11:44:03;11.20;1.00
27747;DHT22;15138;51.012;4.692;2023-04-01T11:46:42;10.80;99.90
27747;DHT22;15138;51.012;4.692;2023-04-01T11:49:29;11.00;28.80
27747;DHT22;15138;51.012;4.692;2023-04-01T11:52:14;11.00;99.90
27747;DHT22;15138;51.012;4.692;2023-04-01T11:54:54;11.10;1.00
27747;DHT22;15138;51.012;4.692;2023-04-01T11:57:41;11.10;1.00
27747;DHT22;15138;51.012;4.692;2023-04-01T12:00:33;11.00;99.90
27747;DHT22;15138;51.012;4.692;2023-04-01T12:03:29;11.20;1.00
27747;DHT22;15138;51.012;4.692;2023-04-01T12:06:05;11.00;1.00
27747;DHT22;15138;51.012;4.692;2023-04-01T12:08:44;11.00;1.00
27747;DHT22;15138;51.012;4.692;2023-04-01T12:11:23;11.00;1.00
27747;DHT22;15138;51.012;4.692;2023-04-01T12:14:02;10.90;1.00
27747;DHT22;15138;51.012;4.692;2023-04-01T12:16:48;10.90;99.90
27747;DHT22;15138;51.012;4.692;2023-04-01T12:19:20;11.00;99.90
27747;DHT22;15138;51.012;4.692;2023-04-01T12:21:59;11.00;99.90
27747;DHT22;15138;51.012;4.692;2023-04-01T12:24:46;11.00;99.90
27747;DHT22;15138;51.012;4.692;2023-04-01T12:27:27;10.90;99.90
27747;DHT22;15138;51.012;4.692;2023-04-01T12:33:18;10.90;99.90
27747;DHT22;15138;51.012;4.692;2023-04-01T12:35:58;10.80;99.90
27747;DHT22;15138;51.012;4.692;2023-04-01T12:38:35;10.80;99.90
27747;DHT22;15138;51.012;4.692;2023-04-01T12:41:17;10.90;99.90
27747;DHT22;15138;51.012;4.692;2023-04-01T12:47:07;11.10;99.90
27747;DHT22;15138;51.012;4.692;2023-04-01T12:50:08;11.00;99.90
27747;DHT22;15138;51.012;4.692;2023-04-01T12:52:50;11.00;98.90
27747;DHT22;15138;51.012;4.692;2023-04-01T12:55:35;11.10;1.00
27747;DHT22;15138;51.012;4.692;2023-04-01T13:01:57;11.20;99.90
27747;DHT22;15138;51.012;4.692;2023-04-01T13:04:48;11.20;99.90
27747;DHT22;15138;51.012;4.692;2023-04-01T13:07:37;11.20;38.00
27747;DHT22;15138;51.012;4.692;2023-04-01T13:10:19;11.30;1.00
27747;DHT22;15138;51.012;4.692;2023-04-01T13:13:12;11.30;99.90
27747;DHT22;15138;51.012;4.692;2023-04-01T13:15:48;11.20;1.00
27747;DHT22;15138;51.012;4.692;2023-04-01T13:18:24;11.10;1.00
27747;DHT22;15138;51.012;4.692;2023-04-01T13:21:00;11.20;6.50
27747;DHT22;15138;51.012;4.692;2023-04-01T13:23:42;11.30;99.90
27747;DHT22;15138;51.012;4.692;2023-04-01T13:26:18;11.20;1.00
27747;DHT22;15138;51.012;4.692;2023-04-01T13:28:54;11.20;1.00
27747;DHT22;15138;51.012;4.692;2023-04-01T13:31:35;11.20;1.00
27747;DHT22;15138;51.012;4.692;2023-04-01T13:34:26;11.30;99.90
27747;DHT22;15138;51.012;4.692;2023-04-01T13:37:10;11.30;59.40
27747;DHT22;15138;51.012;4.692;2023-04-01T13:39:52;11.40;1.00
27747;DHT22;15138;51.012;4.692;2023-04-01T13:42:26;11.50;1.00
27747;DHT22;15138;51.012;4.692;2023-04-01T13:45:01;11.60;1.00
27747;DHT22;15138;51.012;4.692;2023-04-01T13:47:54;11.40;99.90
27747;DHT22;15138;51.012;4.692;2023-04-01T13:50:37;11.40;42.40
27747;DHT22;15138;51.012;4.692;2023-04-01T13:56:30;11.40;1.00
27747;DHT22;15138;51.012;4.692;2023-04-01T13:59:14;11.30;1.00
27747;DHT22;15138;51.012;4.692;2023-04-01T14:01:53;11.20;1.00
27747;DHT22;15138;51.012;4.692;2023-04-01T14:04:46;11.30;49.60
27747;DHT22;15138;51.012;4.692;2023-04-01T14:07:41;11.20;99.90
27747;DHT22;15138;51.012;4.692;2023-04-01T14:10:20;11.30;99.90
27747;DHT22;15138;51.012;4.692;2023-04-01T14:12:58;11.40;99.90
27747;DHT22;15138;51.012;4.692;2023-04-01T14:15:47;11.30;99.90
27747;DHT22;15138;51.012;4.692;2023-04-01T14:18:45;11.20;72.90
27747;DHT22;15138;51.012;4.692;2023-04-01T14:21:29;11.10;99.90
27747;DHT22;15138;51.012;4.692;2023-04-01T14:24:20;11.30;35.70
27747;DHT22;15138;51.012;4.692;2023-04-01T14:27:20;11.30;99.90
27747;DHT22;15138;51.012;4.692;2023-04-01T14:30:17;11.30;1.00
27747;DHT22;15138;51.012;4.692;2023-04-01T14:32:54;11.30;1.00
27747;DHT22;15138;51.012;4.692;2023-04-01T14:35:33;11.30;1.00
27747;DHT22;15138;51.012;4.692;2023-04-01T14:38:28;11.40;1.00
27747;DHT22;15138;51.012;4.692;2023-04-01T14:41:10;11.40;99.90
27747;DHT22;15138;51.012;4.692;2023-04-01T14:43:48;11.50;99.90
27747;DHT22;15138;51.012;4.692;2023-04-01T14:49:21;11.50;1.00
27747;DHT22;15138;51.012;4.692;2023-04-01T14:51:51;11.60;54.20
27747;DHT22;15138;51.012;4.692;2023-04-01T14:54:29;11.60;1.00
27747;DHT22;15138;51.012;4.692;2023-04-01T14:57:09;11.50;62.90
27747;DHT22;15138;51.012;4.692;2023-04-01T14:59:40;11.60;1.00
27747;DHT22;15138;51.012;4.692;2023-04-01T15:02:29;11.50;99.90
27747;DHT22;15138;51.012;4.692;2023-04-01T15:05:11;11.50;99.90
27747;DHT22;15138;51.012;4.692;2023-04-01T15:08:00;11.50;99.90
27747;DHT22;15138;51.012;4.692;2023-04-01T15:14:07;11.50;1.00
27747;DHT22;15138;51.012;4.692;2023-04-01T15:16:45;11.50;99.90
27747;DHT22;15138;51.012;4.692;2023-04-01T15:19:24;11.60;99.90
27747;DHT22;15138;51.012;4.692;2023-04-01T15:24:48;11.70;1.00
27747;DHT22;15138;51.012;4.692;2023-04-01T15:27:32;11.60;1.00
27747;DHT22;15138;51.012;4.692;2023-04-01T15:30:29;11.60;1.00
27747;DHT22;15138;51.012;4.692;2023-04-01T15:33:23;11.50;1.00
27747;DHT22;15138;51.012;4.692;2023-04-01T15:35:58;11.50;1.00
27747;DHT22;15138;51.012;4.692;2023-04-01T15:38:35;11.50;1.00
27747;DHT22;15138;51.012;4.692;2023-04-01T15:41:13;11.40;99.90
27747;DHT22;15138;51.012;4.692;2023-04-01T15:43:44;11.30;99.90
27747;DHT22;15138;51.012;4.692;2023-04-01T15:46:36;11.20;99.90
27747;DHT22;15138;51.012;4.692;2023-04-01T15:49:22;11.30;99.90
27747;DHT22;15138;51.012;4.692;2023-04-01T15:51:56;11.30;1.00
27747;DHT22;15138;51.012;4.692;2023-04-01T15:54:38;11.30;1.00
27747;DHT22;15138;51.012;4.692;2023-04-01T15:57:28;11.20;1.00
27747;DHT22;15138;51.012;4.692;2023-04-01T16:00:10;11.20;1.00
27747;DHT22;15138;51.012;4.692;2023-04-01T16:02:46;11.10;1.00
27747;DHT22;15138;51.012;4.692;2023-04-01T16:05:37;11.10;99.90
27747;DHT22;15138;51.012;4.692;2023-04-01T16:08:28;11.10;1.00
27747;DHT22;15138;51.012;4.692;2023-04-01T16:11:06;11.00;1.00
27747;DHT22;15138;51.012;4.692;2023-04-01T16:13:46;10.90;99.90
27747;DHT22;15138;51.012;4.692;2023-04-01T16:16:25;10.90;99.90
27747;DHT22;15138;51.012;4.692;2023-04-01T16:19:08;10.90;99.90
27747;DHT22;15138;51.012;4.692;2023-04-01T16:21:44;10.90;99.90
27747;DHT22;15138;51.012;4.692;2023-04-01T16:24:17;10.70;1.00
27747;DHT22;15138;51.012;4.692;2023-04-01T16:26:52;10.90;93.30
27747;DHT22;15138;51.012;4.692;2023-04-01T16:29:27;10.90;1.00
27747;DHT22;15138;51.012;4.692;2023-04-01T16:32:12;10.90;1.00
27747;DHT22;15138;51.012;4.692;2023-04-01T16:34:47;10.90;1.00
27747;DHT22;15138;51.012;4.692;2023-04-01T16:37:30;10.80;99.90
27747;DHT22;15138;51.012;4.692;2023-04-01T16:40:11;10.80;99.90
27747;DHT22;15138;51.012;4.692;2023-04-01T16:42:48;10.80;99.90
27747;DHT22;15138;51.012;4.692;2023-04-01T16:45:28;10.70;99.90
27747;DHT22;15138;51.012;4.692;2023-04-01T16:48:05;10.80;14.10
27747;DHT22;15138;51.012;4.692;2023-04-01T16:50:42;10.60;99.90
27747;DHT22;15138;51.012;4.692;2023-04-01T16:53:17;10.60;99.90
27747;DHT22;15138;51.012;4.692;2023-04-01T16:55:50;10.50;99.90
27747;DHT22;15138;51.012;4.692;2023-04-01T16:58:24;10.60;99.90
27747;DHT22;15138;51.012;4.692;2023-04-01T17:00:55;10.60;99.90
27747;DHT22;15138;51.012;4.692;2023-04-01T17:03:29;10.60;1.00
27747;DHT22;15138;51.012;4.692;2023-04-01T17:06:12;10.50;99.90
27747;DHT22;15138;51.012;4.692;2023-04-01T17:08:54;10.50;1.00
27747;DHT22;15138;51.012;4.692;2023-04-01T17:11:28;10.50;99.90
27747;DHT22;15138;51.012;4.692;2023-04-01T17:14:06;10.50;99.90
27747;DHT22;15138;51.012;4.692;2023-04-01T17:16:55;10.40;99.90
27747;DHT22;15138;51.012;4.692;2023-04-01T17:19:36;10.30;1.00
27747;DHT22;15138;51.012;4.692;2023-04-01T17:22:22;10.40;1.00
27747;DHT22;15138;51.012;4.692;2023-04-01T17:25:04;10.30;99.90
27747;DHT22;15138;51.012;4.692;2023-04-01T17:27:42;10.30;1.00
27747;DHT22;15138;51.012;4.692;2023-04-01T17:30:27;10.20;99.90
27747;DHT22;15138;51.012;4.692;2023-04-01T17:33:21;10.30;1.00
27747;DHT22;15138;51.012;4.692;2023-04-01T17:35:58;10.20;1.00
27747;DHT22;15138;51.012;4.692;2023-04-01T17:38:47;10.20;99.90
27747;DHT22;15138;51.012;4.692;2023-04-01T17:41:27;10.20;99.90
27747;DHT22;15138;51.012;4.692;2023-04-01T17:44:04;10.20;99.90
27747;DHT22;15138;51.012;4.692;2023-04-01T17:46:53;10.20;1.00
27747;DHT22;15138;51.012;4.692;2023-04-01T17:49:28;10.20;99.90
27747;DHT22;15138;51.012;4.692;2023-04-01T17:52:02;10.10;99.90
27747;DHT22;15138;51.012;4.692;2023-04-01T17:54:37;10.20;1.00
27747;DHT22;15138;51.012;4.692;2023-04-01T18:00:19;10.10;1.00
27747;DHT22;15138;51.012;4.692;2023-04-01T18:02:54;10.10;1.00
27747;DHT22;15138;51.012;4.692;2023-04-01T18:05:40;10.10;1.00
27747;DHT22;15138;51.012;4.692;2023-04-01T18:08:16;10.10;1.00
27747;DHT22;15138;51.012;4.692;2023-04-01T18:10:57;10.10;1.00
27747;DHT22;15138;51.012;4.692;2023-04-01T18:16:37;10.20;99.90
27747;DHT22;15138;51.012;4.692;2023-04-01T18:19:15;10.20;99.90
27747;DHT22;15138;51.012;4.692;2023-04-01T18:21:50;10.20;1.00